createdAt,value
2018-06-20T00:00:01.165Z,0.00
2018-06-20T00:01:01.148Z,0.00
2018-06-20T00:02:01.137Z,0.00
2018-06-20T00:03:01.139Z,0.00
2018-06-20T00:04:01.135Z,0.00
2018-06-20T00:05:01.132Z,0.00
2018-06-20T00:06:01.134Z,0.00
2018-06-20T00:07:01.122Z,0.00
2018-06-20T00:08:01.117Z,0.00
2018-06-20T00:09:01.118Z,0.00
2018-06-20T00:10:01.116Z,0.00
2018-06-20T00:11:01.134Z,0.00
2018-06-20T00:12:01.129Z,0.00
2018-06-20T00:13:01.117Z,0.00
2018-06-20T00:14:01.104Z,0.00
2018-06-20T00:15:01.098Z,0.00
2018-06-20T00:16:01.099Z,0.00
2018-06-20T00:17:01.098Z,0.00
2018-06-20T00:18:01.089Z,0.00
2018-06-20T00:19:01.087Z,0.00
2018-06-20T00:20:01.089Z,0.00
2018-06-20T00:21:01.086Z,0.00
2018-06-20T00:22:01.093Z,0.00
2018-06-20T00:23:01.076Z,0.00
2018-06-20T00:24:01.220Z,0.00
2018-06-20T00:25:01.061Z,0.00
2018-06-20T00:26:01.071Z,0.00
2018-06-20T00:27:01.065Z,0.00
2018-06-20T00:28:01.061Z,0.00
2018-06-20T00:29:01.073Z,0.00
2018-06-20T00:30:01.072Z,0.00
2018-06-20T00:31:01.056Z,0.00
2018-06-20T00:32:01.054Z,0.00
2018-06-20T00:33:01.047Z,0.00
2018-06-20T00:34:01.048Z,0.00
2018-06-20T00:35:01.038Z,0.00
2018-06-20T00:36:01.046Z,0.00
2018-06-20T00:37:01.034Z,0.00
2018-06-20T00:38:01.035Z,0.00
2018-06-20T00:39:01.031Z,0.00
2018-06-20T00:40:01.024Z,0.00
2018-06-20T00:41:01.019Z,0.00
2018-06-20T00:42:01.016Z,0.00
2018-06-20T00:43:01.043Z,0.00
2018-06-20T00:44:01.010Z,0.00
2018-06-20T00:45:01.012Z,0.00
2018-06-20T00:46:01.016Z,0.00
2018-06-20T00:47:01.001Z,0.00
2018-06-20T00:48:01.012Z,0.00
2018-06-20T00:49:00.998Z,0.00
2018-06-20T00:50:00.990Z,0.00
2018-06-20T00:51:00.990Z,0.00
2018-06-20T00:52:00.995Z,0.00
2018-06-20T00:53:00.989Z,0.00
2018-06-20T00:54:00.981Z,0.00
2018-06-20T00:55:00.971Z,0.00
2018-06-20T00:56:00.970Z,0.00
2018-06-20T00:57:00.975Z,0.00
2018-06-20T00:58:00.967Z,0.00
2018-06-20T00:59:01.019Z,0.00
2018-06-20T01:00:00.996Z,0.00
2018-06-20T01:01:00.999Z,0.00
2018-06-20T01:02:01.056Z,0.00
2018-06-20T01:03:00.957Z,0.00
2018-06-20T01:04:00.948Z,0.00
2018-06-20T01:05:00.945Z,0.00
2018-06-20T01:06:00.942Z,0.00
2018-06-20T01:07:00.941Z,0.00
2018-06-20T01:08:00.938Z,0.00
2018-06-20T01:09:00.948Z,0.00
2018-06-20T01:10:00.951Z,0.00
2018-06-20T01:11:00.945Z,0.00
2018-06-20T01:12:00.920Z,0.00
2018-06-20T01:13:00.933Z,0.00
2018-06-20T01:14:00.916Z,0.00
2018-06-20T01:15:00.912Z,0.00
2018-06-20T01:16:00.925Z,0.00
2018-06-20T01:17:00.900Z,0.00
2018-06-20T01:18:00.891Z,0.00
2018-06-20T01:19:00.922Z,0.00
2018-06-20T01:20:00.897Z,0.00
2018-06-20T01:21:00.893Z,0.00
2018-06-20T01:22:00.879Z,0.00
2018-06-20T01:23:00.904Z,0.00
2018-06-20T01:24:00.884Z,0.00
2018-06-20T01:25:00.879Z,0.00
2018-06-20T01:26:00.872Z,0.00
2018-06-20T01:27:00.884Z,0.00
2018-06-20T01:28:00.863Z,0.00
2018-06-20T01:29:00.862Z,0.00
2018-06-20T01:30:00.858Z,0.00
2018-06-20T02:04:33.747Z,0.00
2018-06-20T02:05:33.706Z,0.00
2018-06-20T02:07:26.701Z,0.00
2018-06-20T02:08:26.661Z,0.00
2018-06-20T02:10:19.590Z,0.00
2018-06-20T02:11:19.549Z,0.00
2018-06-20T02:12:19.555Z,0.00
2018-06-20T02:13:19.542Z,0.00
2018-06-20T02:14:19.534Z,0.00
2018-06-20T02:15:19.521Z,0.00
2018-06-20T02:16:19.545Z,0.00
2018-06-20T02:17:19.520Z,0.00
2018-06-20T02:18:19.517Z,0.00
2018-06-20T02:19:19.514Z,0.00
2018-06-20T02:20:19.508Z,0.00
2018-06-20T02:21:19.511Z,0.00
2018-06-20T02:22:19.489Z,0.00
2018-06-20T02:23:19.499Z,0.00
2018-06-20T02:24:19.585Z,0.00
2018-06-20T02:25:19.482Z,0.00
2018-06-20T02:26:19.499Z,0.00
2018-06-20T02:27:19.485Z,0.00
2018-06-20T02:28:19.507Z,0.00
2018-06-20T02:29:19.474Z,0.00
2018-06-20T02:30:19.475Z,0.00
2018-06-20T02:31:19.459Z,0.00
2018-06-20T02:32:19.467Z,0.00
2018-06-20T02:33:19.461Z,0.00
2018-06-20T02:34:19.456Z,0.00
2018-06-20T02:35:19.455Z,0.00
2018-06-20T02:36:19.464Z,0.00
2018-06-20T02:37:19.477Z,0.00
2018-06-20T02:38:19.446Z,0.00
2018-06-20T02:39:19.438Z,0.00
2018-06-20T02:40:19.471Z,0.00
2018-06-20T02:41:19.443Z,0.00
2018-06-20T02:42:19.419Z,0.00
2018-06-20T02:43:19.430Z,0.00
2018-06-20T02:44:19.416Z,0.00
2018-06-20T02:45:19.436Z,0.00
2018-06-20T02:46:19.413Z,0.00
2018-06-20T02:47:19.406Z,0.00
2018-06-20T02:48:19.417Z,0.00
2018-06-20T02:49:19.393Z,0.00
2018-06-20T02:50:19.395Z,0.00
2018-06-20T02:51:19.387Z,0.00
2018-06-20T02:52:19.391Z,0.00
2018-06-20T02:53:19.382Z,0.00
2018-06-20T02:54:19.374Z,0.00
2018-06-20T02:55:19.396Z,0.00
2018-06-20T02:56:19.383Z,0.00
2018-06-20T02:57:19.390Z,0.00
2018-06-20T02:58:19.374Z,0.00
2018-06-20T02:59:19.376Z,0.00
2018-06-20T03:00:19.353Z,0.00
2018-06-20T03:01:19.362Z,0.00
2018-06-20T03:02:19.346Z,0.00
2018-06-20T03:03:19.356Z,0.00
2018-06-20T03:04:19.372Z,0.00
2018-06-20T03:05:19.345Z,0.00
2018-06-20T03:06:19.348Z,0.00
2018-06-20T03:07:19.337Z,5.63
2018-06-20T03:08:19.335Z,5.63
2018-06-20T03:09:19.324Z,5.63
2018-06-20T03:10:19.333Z,5.63
2018-06-20T03:11:19.318Z,5.63
2018-06-20T03:12:19.319Z,5.63
2018-06-20T03:13:19.315Z,5.63
2018-06-20T03:14:19.300Z,5.63
2018-06-20T03:15:19.307Z,11.25
2018-06-20T03:16:19.300Z,11.25
2018-06-20T03:17:19.297Z,11.25
2018-06-20T03:18:19.291Z,11.25
2018-06-20T03:19:19.287Z,11.25
2018-06-20T03:20:19.290Z,16.88
2018-06-20T03:21:19.279Z,16.88
2018-06-20T03:22:19.275Z,16.88
2018-06-20T03:23:19.268Z,16.88
2018-06-20T03:24:19.269Z,22.50
2018-06-20T03:25:19.274Z,22.50
2018-06-20T03:26:19.262Z,22.50
2018-06-20T03:27:19.323Z,28.13
2018-06-20T03:28:19.252Z,28.13
2018-06-20T03:29:19.253Z,33.75
2018-06-20T03:30:19.245Z,39.38
2018-06-20T03:31:19.245Z,39.38
2018-06-20T03:32:19.245Z,45.00
2018-06-20T03:33:19.234Z,50.63
2018-06-20T03:34:19.232Z,50.63
2018-06-20T03:35:19.231Z,56.25
2018-06-20T03:36:19.224Z,61.88
2018-06-20T03:37:19.225Z,73.13
2018-06-20T03:38:19.219Z,78.75
2018-06-20T03:39:19.255Z,78.75
2018-06-20T03:40:19.218Z,84.38
2018-06-20T03:41:19.211Z,84.38
2018-06-20T03:42:19.205Z,90.00
2018-06-20T03:43:19.199Z,95.63
2018-06-20T03:44:19.197Z,101.25
2018-06-20T03:45:19.194Z,106.88
2018-06-20T03:46:19.188Z,106.88
2018-06-20T03:47:19.188Z,112.50
2018-06-20T03:48:19.192Z,118.13
2018-06-20T03:49:19.181Z,118.13
2018-06-20T03:50:19.178Z,123.75
2018-06-20T03:51:19.175Z,135.00
2018-06-20T03:52:19.169Z,129.38
2018-06-20T03:53:19.169Z,135.00
2018-06-20T03:54:19.264Z,140.63
2018-06-20T03:55:19.160Z,140.63
2018-06-20T03:56:19.163Z,146.25
2018-06-20T03:57:19.156Z,146.25
2018-06-20T03:58:19.149Z,151.88
2018-06-20T03:59:19.177Z,151.88
2018-06-20T04:00:19.145Z,157.50
2018-06-20T04:01:19.141Z,157.50
2018-06-20T04:02:19.182Z,163.13
2018-06-20T04:03:19.215Z,163.13
2018-06-20T04:04:19.128Z,174.38
2018-06-20T04:05:19.127Z,168.75
2018-06-20T04:06:19.124Z,174.38
2018-06-20T04:07:19.129Z,174.38
2018-06-20T04:08:19.127Z,180.00
2018-06-20T04:09:19.118Z,180.00
2018-06-20T04:10:19.118Z,185.63
2018-06-20T04:11:19.112Z,191.25
2018-06-20T04:12:19.110Z,191.25
2018-06-20T04:13:19.104Z,196.88
2018-06-20T04:14:19.176Z,196.88
2018-06-20T04:15:19.099Z,202.50
2018-06-20T04:16:19.119Z,202.50
2018-06-20T04:17:19.100Z,208.13
2018-06-20T04:18:19.132Z,208.13
2018-06-20T04:19:19.088Z,213.75
2018-06-20T04:20:19.085Z,213.75
2018-06-20T04:21:19.082Z,219.38
2018-06-20T04:22:19.083Z,219.38
2018-06-20T04:23:19.072Z,219.38
2018-06-20T04:24:19.117Z,225.00
2018-06-20T04:25:19.084Z,225.00
2018-06-20T04:26:19.069Z,230.63
2018-06-20T04:27:19.074Z,230.63
2018-06-20T04:28:19.065Z,230.63
2018-06-20T04:29:19.059Z,225.00
2018-06-20T04:30:19.060Z,230.63
2018-06-20T04:31:19.057Z,230.63
2018-06-20T04:32:19.053Z,230.63
2018-06-20T04:33:19.055Z,236.25
2018-06-20T04:34:19.059Z,236.25
2018-06-20T04:35:19.060Z,236.25
2018-06-20T04:36:19.048Z,241.88
2018-06-20T04:37:19.064Z,241.88
2018-06-20T04:38:19.067Z,241.88
2018-06-20T04:39:19.053Z,247.50
2018-06-20T04:40:19.054Z,247.50
2018-06-20T04:41:19.095Z,247.50
2018-06-20T04:42:19.042Z,253.13
2018-06-20T04:43:19.089Z,253.13
2018-06-20T04:44:19.061Z,253.13
2018-06-20T04:45:19.068Z,258.75
2018-06-20T04:46:19.037Z,258.75
2018-06-20T04:47:19.030Z,258.75
2018-06-20T04:48:19.111Z,258.75
2018-06-20T04:49:19.063Z,264.38
2018-06-20T04:50:19.024Z,264.38
2018-06-20T04:51:19.033Z,264.38
2018-06-20T04:52:19.026Z,270.00
2018-06-20T04:53:19.013Z,270.00
2018-06-20T04:54:19.040Z,270.00
2018-06-20T04:55:19.020Z,275.63
2018-06-20T04:56:19.016Z,270.00
2018-06-20T04:57:19.000Z,275.63
2018-06-20T04:58:18.997Z,275.63
2018-06-20T04:59:19.025Z,281.25
2018-06-20T05:00:18.992Z,281.25
2018-06-20T05:01:18.987Z,286.88
2018-06-20T05:02:18.983Z,286.88
2018-06-20T05:03:18.986Z,286.88
2018-06-20T05:04:19.060Z,292.50
2018-06-20T05:05:18.980Z,292.50
2018-06-20T05:06:18.989Z,298.13
2018-06-20T05:07:18.975Z,298.13
2018-06-20T05:08:18.972Z,298.13
2018-06-20T05:09:18.971Z,303.75
2018-06-20T05:10:18.995Z,303.75
2018-06-20T05:11:18.968Z,309.38
2018-06-20T05:12:18.968Z,309.38
2018-06-20T05:13:18.962Z,309.38
2018-06-20T05:14:18.984Z,315.00
2018-06-20T05:15:18.976Z,315.00
2018-06-20T05:16:18.959Z,320.63
2018-06-20T05:17:18.953Z,320.63
2018-06-20T05:18:18.996Z,326.25
2018-06-20T05:19:18.948Z,326.25
2018-06-20T05:20:18.964Z,331.88
2018-06-20T05:21:18.990Z,331.88
2018-06-20T05:22:18.942Z,331.88
2018-06-20T05:23:18.962Z,337.50
2018-06-20T05:24:18.930Z,337.50
2018-06-20T05:25:18.938Z,343.13
2018-06-20T05:26:18.937Z,343.13
2018-06-20T05:27:18.954Z,343.13
2018-06-20T05:28:18.944Z,371.25
2018-06-20T05:29:18.931Z,376.88
2018-06-20T05:30:18.934Z,376.88
2018-06-20T05:31:18.922Z,388.13
2018-06-20T05:32:18.931Z,382.50
2018-06-20T05:33:18.972Z,388.13
2018-06-20T05:34:18.922Z,388.13
2018-06-20T05:35:18.921Z,399.38
2018-06-20T05:36:18.919Z,393.75
2018-06-20T05:37:18.918Z,399.38
2018-06-20T05:38:18.909Z,399.38
2018-06-20T05:39:18.915Z,405.00
2018-06-20T05:40:18.948Z,405.00
2018-06-20T05:41:18.912Z,410.63
2018-06-20T05:42:18.911Z,405.00
2018-06-20T05:43:18.911Z,410.63
2018-06-20T05:44:18.910Z,421.88
2018-06-20T05:45:18.908Z,421.88
2018-06-20T05:46:18.909Z,421.88
2018-06-20T05:47:18.928Z,421.88
2018-06-20T05:48:18.919Z,427.50
2018-06-20T05:49:18.904Z,427.50
2018-06-20T05:50:18.902Z,433.13
2018-06-20T05:51:18.903Z,433.13
2018-06-20T05:52:18.919Z,438.75
2018-06-20T05:53:18.900Z,444.38
2018-06-20T05:54:18.907Z,444.38
2018-06-20T05:55:18.899Z,450.00
2018-06-20T05:56:18.896Z,450.00
2018-06-20T05:57:18.891Z,455.63
2018-06-20T05:58:18.892Z,455.63
2018-06-20T05:59:18.892Z,461.25
2018-06-20T06:00:18.898Z,461.25
2018-06-20T06:01:18.889Z,461.25
2018-06-20T06:02:18.890Z,461.25
2018-06-20T06:03:18.891Z,466.88
2018-06-20T06:04:18.916Z,466.88
2018-06-20T06:05:18.951Z,466.88
2018-06-20T06:06:18.893Z,472.50
2018-06-20T06:07:18.885Z,472.50
2018-06-20T06:08:18.892Z,478.13
2018-06-20T06:09:18.891Z,478.13
2018-06-20T06:10:18.890Z,478.13
2018-06-20T06:11:18.886Z,483.75
2018-06-20T06:12:18.890Z,483.75
2018-06-20T06:13:18.890Z,483.75
2018-06-20T06:14:18.888Z,489.38
2018-06-20T06:15:18.898Z,489.38
2018-06-20T06:16:18.906Z,489.38
2018-06-20T06:17:18.886Z,495.00
2018-06-20T06:18:18.886Z,495.00
2018-06-20T06:19:18.886Z,495.00
2018-06-20T06:20:18.886Z,495.00
2018-06-20T06:21:18.883Z,500.63
2018-06-20T06:22:18.875Z,500.63
2018-06-20T06:23:18.900Z,500.63
2018-06-20T06:24:18.877Z,500.63
2018-06-20T06:25:18.879Z,506.25
2018-06-20T06:26:18.882Z,506.25
2018-06-20T06:27:18.875Z,506.25
2018-06-20T06:28:18.873Z,506.25
2018-06-20T06:29:18.883Z,506.25
2018-06-20T06:30:18.882Z,506.25
2018-06-20T06:31:18.879Z,517.50
2018-06-20T06:32:18.880Z,511.88
2018-06-20T06:33:18.876Z,511.88
2018-06-20T06:34:18.878Z,511.88
2018-06-20T06:35:18.883Z,511.88
2018-06-20T06:36:18.878Z,511.88
2018-06-20T06:37:18.887Z,517.50
2018-06-20T06:38:18.875Z,517.50
2018-06-20T06:39:18.877Z,517.50
2018-06-20T06:40:18.880Z,523.13
2018-06-20T06:41:18.882Z,517.50
2018-06-20T06:42:18.880Z,517.50
2018-06-20T06:43:18.879Z,517.50
2018-06-20T06:44:18.887Z,517.50
2018-06-20T06:45:18.884Z,517.50
2018-06-20T06:46:18.881Z,523.13
2018-06-20T06:47:18.882Z,523.13
2018-06-20T06:48:18.885Z,523.13
2018-06-20T06:49:18.886Z,523.13
2018-06-20T06:50:18.888Z,523.13
2018-06-20T06:51:18.883Z,523.13
2018-06-20T06:52:18.888Z,523.13
2018-06-20T06:53:18.887Z,528.75
2018-06-20T06:54:18.889Z,528.75
2018-06-20T06:55:18.887Z,534.38
2018-06-20T06:56:18.887Z,534.38
2018-06-20T06:57:18.889Z,534.38
2018-06-20T06:58:18.888Z,534.38
2018-06-20T06:59:18.893Z,551.25
2018-06-20T07:00:18.899Z,573.75
2018-06-20T07:01:18.892Z,601.88
2018-06-20T07:02:18.894Z,720.00
2018-06-20T07:03:18.895Z,1608.75
2018-06-20T07:04:18.902Z,2396.25
2018-06-20T07:05:18.901Z,2756.25
2018-06-20T07:06:18.900Z,3065.63
2018-06-20T07:07:18.903Z,3020.63
2018-06-20T07:08:18.906Z,2908.13
2018-06-20T07:09:18.937Z,2711.25
2018-06-20T07:10:18.919Z,2885.63
2018-06-20T07:11:18.922Z,3110.63
2018-06-20T07:12:18.931Z,3082.50
2018-06-20T07:13:18.937Z,3183.75
2018-06-20T07:14:18.954Z,3206.25
2018-06-20T07:15:18.955Z,3133.13
2018-06-20T07:16:18.960Z,2953.13
2018-06-20T07:17:18.972Z,3065.63
2018-06-20T07:18:18.975Z,3487.50
2018-06-20T07:19:18.989Z,3166.88
2018-06-20T07:20:19.000Z,3076.88
2018-06-20T07:21:19.007Z,3431.25
2018-06-20T07:22:19.044Z,3504.38
2018-06-20T07:23:19.074Z,3571.88
2018-06-20T07:24:19.113Z,3313.13
2018-06-20T07:25:19.051Z,3346.88
2018-06-20T07:26:19.065Z,3560.63
2018-06-20T07:27:19.078Z,3555.00
2018-06-20T07:28:19.089Z,3386.25
2018-06-20T07:29:19.123Z,3476.25
2018-06-20T07:30:19.115Z,3380.63
2018-06-20T07:31:19.122Z,3403.13
2018-06-20T07:32:19.135Z,3386.25
2018-06-20T07:33:19.147Z,3526.88
2018-06-20T07:34:19.162Z,3690.00
2018-06-20T07:35:19.183Z,3465.00
2018-06-20T07:36:19.297Z,3543.75
2018-06-20T07:37:19.200Z,3583.13
2018-06-20T07:38:19.214Z,3684.38
2018-06-20T07:39:19.228Z,3420.00
2018-06-20T07:40:19.241Z,3240.00
2018-06-20T07:41:19.251Z,3301.88
2018-06-20T07:42:19.270Z,3583.13
2018-06-20T07:43:19.282Z,3594.38
2018-06-20T07:44:19.304Z,3566.25
2018-06-20T07:45:19.312Z,3487.50
2018-06-20T07:46:19.327Z,3813.75
2018-06-20T07:47:19.338Z,3853.13
2018-06-20T07:48:19.350Z,3813.75
2018-06-20T07:49:19.367Z,3690.00
2018-06-20T07:50:19.378Z,3628.13
2018-06-20T07:51:19.395Z,3504.38
2018-06-20T07:52:19.416Z,3526.88
2018-06-20T07:53:19.434Z,3836.25
2018-06-20T07:54:19.456Z,4055.63
2018-06-20T07:55:19.478Z,3819.38
2018-06-20T07:56:19.466Z,3504.38
2018-06-20T07:57:19.496Z,3555.00
2018-06-20T07:58:19.495Z,3560.63
2018-06-20T07:59:19.510Z,3684.38
2018-06-20T08:00:19.531Z,3960.00
2018-06-20T08:01:19.546Z,3841.88
2018-06-20T08:02:19.561Z,3993.75
2018-06-20T08:03:19.576Z,3988.13
2018-06-20T08:04:19.591Z,3768.75
2018-06-20T08:05:19.611Z,4072.50
2018-06-20T08:06:19.652Z,3915.00
2018-06-20T08:07:19.637Z,3825.00
2018-06-20T08:08:19.650Z,4066.88
2018-06-20T08:09:19.671Z,3971.25
2018-06-20T08:10:19.688Z,3954.38
2018-06-20T08:11:19.700Z,4044.38
2018-06-20T08:12:19.750Z,3965.63
2018-06-20T08:13:19.729Z,3853.13
2018-06-20T08:14:19.745Z,4010.63
2018-06-20T08:15:19.763Z,4005.00
2018-06-20T08:16:19.779Z,3870.00
2018-06-20T08:17:19.799Z,4241.25
2018-06-20T08:18:19.809Z,4353.75
2018-06-20T08:19:19.825Z,4376.25
2018-06-20T08:20:19.841Z,4308.75
2018-06-20T08:21:19.854Z,4083.75
2018-06-20T08:22:19.859Z,3954.38
2018-06-20T08:23:19.887Z,4190.63
2018-06-20T08:24:19.904Z,4353.75
2018-06-20T08:25:19.923Z,4100.63
2018-06-20T08:26:19.932Z,4246.88
2018-06-20T08:27:19.950Z,4426.88
2018-06-20T08:28:19.970Z,4522.50
2018-06-20T08:29:19.984Z,4578.75
2018-06-20T08:30:20.000Z,4252.50
2018-06-20T08:31:20.015Z,4595.63
2018-06-20T08:32:20.041Z,4573.13
2018-06-20T08:33:20.048Z,4651.88
2018-06-20T08:34:20.064Z,4685.63
2018-06-20T08:35:20.091Z,4173.75
2018-06-20T08:36:20.096Z,4083.75
2018-06-20T08:37:20.116Z,4584.38
2018-06-20T08:38:20.129Z,4651.88
2018-06-20T08:39:20.152Z,4618.13
2018-06-20T08:40:20.165Z,4449.38
2018-06-20T08:41:20.176Z,4556.25
2018-06-20T08:42:20.241Z,4764.38
2018-06-20T08:43:20.223Z,4500.00
2018-06-20T08:44:20.225Z,4381.88
2018-06-20T08:45:20.251Z,4477.50
2018-06-20T08:46:20.272Z,4730.63
2018-06-20T08:47:20.296Z,4398.75
2018-06-20T08:48:20.296Z,4246.88
2018-06-20T08:49:20.340Z,4145.63
2018-06-20T08:50:20.514Z,4410.00
2018-06-20T08:51:20.540Z,4455.00
2018-06-20T08:52:20.371Z,4224.38
2018-06-20T08:53:20.479Z,4320.00
2018-06-20T08:54:20.398Z,4606.88
2018-06-20T08:55:20.440Z,4370.63
2018-06-20T08:56:20.436Z,4500.00
2018-06-20T08:57:20.463Z,4876.88
2018-06-20T08:58:20.468Z,4882.50
2018-06-20T08:59:20.481Z,4426.88
2018-06-20T09:00:20.506Z,4443.75
2018-06-20T09:01:20.523Z,4061.25
2018-06-20T09:02:20.545Z,4190.63
2018-06-20T09:03:20.556Z,5028.75
2018-06-20T09:04:20.572Z,4702.50
2018-06-20T09:05:20.591Z,4550.63
2018-06-20T09:06:20.607Z,4708.13
2018-06-20T09:07:20.626Z,4657.50
2018-06-20T09:08:20.634Z,4668.75
2018-06-20T09:09:20.674Z,4826.25
2018-06-20T09:10:20.681Z,4955.63
2018-06-20T09:11:20.697Z,5034.38
2018-06-20T09:12:20.713Z,5107.50
2018-06-20T09:13:20.731Z,5158.13
2018-06-20T09:14:20.806Z,4786.88
2018-06-20T09:15:20.762Z,4792.50
2018-06-20T09:16:20.798Z,4601.25
2018-06-20T09:17:20.793Z,4455.00
2018-06-20T09:18:20.818Z,4781.25
2018-06-20T09:19:20.837Z,5073.75
2018-06-20T09:20:20.903Z,4528.13
2018-06-20T09:21:20.869Z,4708.13
2018-06-20T09:22:20.885Z,5186.25
2018-06-20T09:23:20.908Z,4798.13
2018-06-20T09:24:20.920Z,4567.50
2018-06-20T09:25:20.937Z,4798.13
2018-06-20T09:26:20.965Z,4646.25
2018-06-20T09:27:20.973Z,4770.00
2018-06-20T09:28:20.988Z,5040.00
2018-06-20T09:29:21.005Z,4843.13
2018-06-20T09:30:21.026Z,4921.88
2018-06-20T09:31:21.044Z,4820.63
2018-06-20T09:32:21.061Z,4005.00
2018-06-20T09:33:21.082Z,4263.75
2018-06-20T09:34:21.096Z,4989.38
2018-06-20T09:35:21.121Z,4950.00
2018-06-20T09:36:21.129Z,4764.38
2018-06-20T09:37:21.155Z,4916.25
2018-06-20T09:38:21.173Z,5028.75
2018-06-20T09:39:21.181Z,5220.00
2018-06-20T09:40:21.201Z,5236.88
2018-06-20T09:41:21.223Z,5079.38
2018-06-20T09:42:21.238Z,4961.25
2018-06-20T09:43:21.253Z,4623.75
2018-06-20T09:44:21.283Z,4685.63
2018-06-20T09:45:21.292Z,4303.13
2018-06-20T09:46:21.308Z,4882.50
2018-06-20T09:47:21.333Z,5529.38
2018-06-20T09:48:21.349Z,4995.00
2018-06-20T09:49:21.361Z,4528.13
2018-06-20T09:50:21.368Z,4871.25
2018-06-20T09:51:21.430Z,5265.00
2018-06-20T09:52:21.417Z,4961.25
2018-06-20T09:53:21.445Z,4601.25
2018-06-20T09:54:21.516Z,5118.75
2018-06-20T09:55:21.467Z,5568.75
2018-06-20T09:56:21.501Z,5557.50
2018-06-20T09:57:21.510Z,5720.63
2018-06-20T09:58:21.516Z,5833.13
2018-06-20T09:59:21.544Z,5416.88
2018-06-20T10:00:21.559Z,4545.00
2018-06-20T10:01:21.584Z,4505.63
2018-06-20T10:02:21.635Z,4381.88
2018-06-20T10:03:21.613Z,4404.38
2018-06-20T10:04:21.634Z,4831.88
2018-06-20T10:05:21.653Z,4612.50
2018-06-20T10:06:21.709Z,4370.63
2018-06-20T10:07:21.688Z,4831.88
2018-06-20T10:08:21.713Z,5141.25
2018-06-20T10:09:21.727Z,4888.13
2018-06-20T10:10:21.742Z,4556.25
2018-06-20T10:11:21.773Z,4415.63
2018-06-20T10:12:21.779Z,4629.38
2018-06-20T10:13:21.802Z,4601.25
2018-06-20T10:14:21.816Z,4905.00
2018-06-20T10:15:21.845Z,5191.88
2018-06-20T10:16:21.856Z,5017.50
2018-06-20T10:17:21.870Z,5203.13
2018-06-20T10:18:21.889Z,5484.38
2018-06-20T10:19:21.905Z,5355.00
2018-06-20T10:20:21.989Z,5681.25
2018-06-20T10:21:21.946Z,5895.00
2018-06-20T10:22:21.961Z,5748.75
2018-06-20T10:23:21.979Z,5265.00
2018-06-20T10:24:21.997Z,5405.63
2018-06-20T10:25:22.019Z,5636.25
2018-06-20T10:26:22.044Z,5304.38
2018-06-20T10:27:22.053Z,5484.38
2018-06-20T10:28:22.070Z,5580.00
2018-06-20T10:29:22.102Z,5602.50
2018-06-20T10:30:22.112Z,4972.50
2018-06-20T10:31:22.128Z,4578.75
2018-06-20T10:32:22.143Z,4449.38
2018-06-20T10:33:22.165Z,4916.25
2018-06-20T10:34:22.185Z,5248.13
2018-06-20T10:35:22.198Z,5208.75
2018-06-20T10:36:22.215Z,5141.25
2018-06-20T10:37:22.235Z,5141.25
2018-06-20T10:38:22.266Z,5197.50
2018-06-20T10:39:22.274Z,5152.50
2018-06-20T10:40:22.288Z,5383.13
2018-06-20T10:41:22.312Z,5107.50
2018-06-20T10:42:22.327Z,5073.75
2018-06-20T10:43:22.349Z,5310.00
2018-06-20T10:44:22.360Z,5253.75
2018-06-20T10:45:22.388Z,5450.63
2018-06-20T10:46:22.557Z,5563.13
2018-06-20T10:47:22.425Z,5281.88
2018-06-20T10:48:22.436Z,5343.75
2018-06-20T10:49:22.485Z,5400.00
2018-06-20T10:50:22.483Z,5028.75
2018-06-20T10:51:22.486Z,5236.88
2018-06-20T10:52:22.509Z,5135.63
2018-06-20T10:53:22.529Z,4871.25
2018-06-20T10:54:22.606Z,5236.88
2018-06-20T10:55:22.562Z,4876.88
2018-06-20T10:56:22.579Z,4747.50
2018-06-20T10:57:22.598Z,5197.50
2018-06-20T10:58:22.615Z,5343.75
2018-06-20T10:59:22.634Z,5118.75
2018-06-20T11:00:22.655Z,4803.75
2018-06-20T11:01:22.676Z,4921.88
2018-06-20T11:02:22.685Z,4916.25
2018-06-20T11:03:22.705Z,4910.63
2018-06-20T11:04:22.724Z,4741.88
2018-06-20T11:05:22.764Z,4668.75
2018-06-20T11:06:22.761Z,4815.00
2018-06-20T11:07:22.777Z,4893.75
2018-06-20T11:08:22.798Z,4820.63
2018-06-20T11:09:22.817Z,4595.63
2018-06-20T11:10:22.830Z,5034.38
2018-06-20T11:11:22.849Z,5231.25
2018-06-20T11:12:22.866Z,4933.13
2018-06-20T11:13:22.884Z,4831.88
2018-06-20T11:14:22.901Z,5096.25
2018-06-20T11:15:22.932Z,5518.13
2018-06-20T11:16:22.944Z,5355.00
2018-06-20T11:17:22.956Z,4815.00
2018-06-20T11:18:22.971Z,4938.75
2018-06-20T11:19:22.991Z,5068.13
2018-06-20T11:20:23.009Z,5056.88
2018-06-20T11:21:23.028Z,5006.25
2018-06-20T11:22:23.044Z,5062.50
2018-06-20T11:23:23.155Z,4786.88
2018-06-20T11:24:23.080Z,4516.88
2018-06-20T11:25:23.091Z,4213.13
2018-06-20T11:26:23.115Z,4314.38
2018-06-20T11:27:23.134Z,5107.50
2018-06-20T11:28:23.149Z,5214.38
2018-06-20T11:29:23.202Z,5040.00
2018-06-20T11:30:23.175Z,4781.25
2018-06-20T11:31:23.195Z,4280.63
2018-06-20T11:32:23.216Z,4550.63
2018-06-20T11:33:23.230Z,4831.88
2018-06-20T11:34:23.248Z,4556.25
2018-06-20T11:35:23.269Z,4826.25
2018-06-20T11:36:23.285Z,5028.75
2018-06-20T11:37:23.301Z,4905.00
2018-06-20T11:38:23.317Z,4888.13
2018-06-20T11:39:23.343Z,5045.63
2018-06-20T11:40:23.358Z,5163.75
2018-06-20T11:41:23.376Z,4646.25
2018-06-20T11:42:23.387Z,4770.00
2018-06-20T11:43:23.402Z,4938.75
2018-06-20T11:44:23.423Z,4455.00
2018-06-20T11:45:23.439Z,4753.13
2018-06-20T11:46:23.469Z,4837.50
2018-06-20T11:47:23.475Z,4471.88
2018-06-20T11:48:23.494Z,4691.25
2018-06-20T11:49:23.528Z,4966.88
2018-06-20T11:50:23.544Z,4944.38
2018-06-20T11:51:23.545Z,4623.75
2018-06-20T11:52:23.570Z,4618.13
2018-06-20T11:53:23.595Z,4657.50
2018-06-20T11:54:23.599Z,4663.13
2018-06-20T11:55:23.614Z,4983.75
2018-06-20T11:56:23.634Z,5056.88
2018-06-20T11:57:23.650Z,4961.25
2018-06-20T11:58:23.668Z,4618.13
2018-06-20T11:59:23.684Z,3903.75
2018-06-20T12:00:23.702Z,3684.38
2018-06-20T12:01:27.830Z,4241.25
2018-06-20T12:02:23.743Z,4623.75
2018-06-20T12:03:23.754Z,4848.75
2018-06-20T12:04:23.773Z,4860.00
2018-06-20T12:05:23.788Z,4770.00
2018-06-20T12:06:23.808Z,4708.13
2018-06-20T12:07:23.825Z,4741.88
2018-06-20T12:08:23.846Z,4910.63
2018-06-20T12:09:23.862Z,5034.38
2018-06-20T12:10:23.877Z,5113.13
2018-06-20T12:11:23.893Z,5293.13
2018-06-20T12:12:23.910Z,4860.00
2018-06-20T12:13:23.936Z,4404.38
2018-06-20T12:14:23.950Z,4916.25
2018-06-20T12:15:23.963Z,5388.75
2018-06-20T12:16:23.979Z,5242.50
2018-06-20T12:17:23.996Z,5169.38
2018-06-20T12:18:24.015Z,5040.00
2018-06-20T12:19:24.030Z,4820.63
2018-06-20T12:20:24.048Z,4944.38
2018-06-20T12:21:24.069Z,4781.25
2018-06-20T12:22:24.079Z,4955.63
2018-06-20T12:23:24.094Z,4899.38
2018-06-20T12:24:24.118Z,4618.13
2018-06-20T12:25:24.136Z,4775.63
2018-06-20T12:26:24.149Z,4713.75
2018-06-20T12:27:24.163Z,4505.63
2018-06-20T12:28:24.311Z,4162.50
2018-06-20T12:29:24.226Z,3622.50
2018-06-20T12:30:24.214Z,4038.75
2018-06-20T12:31:24.237Z,4516.88
2018-06-20T12:32:24.251Z,4410.00
2018-06-20T12:33:24.271Z,4140.00
2018-06-20T12:34:24.277Z,4027.50
2018-06-20T12:35:24.310Z,4050.00
2018-06-20T12:36:24.321Z,4038.75
2018-06-20T12:37:24.346Z,3988.13
2018-06-20T12:38:24.353Z,3858.75
2018-06-20T12:39:24.369Z,1816.88
2018-06-20T12:40:24.386Z,427.50
2018-06-20T12:41:24.406Z,376.88
2018-06-20T12:42:24.423Z,348.75
2018-06-20T12:43:24.432Z,337.50
2018-06-20T12:44:24.445Z,337.50
2018-06-20T12:45:24.456Z,337.50
2018-06-20T12:46:24.470Z,337.50
2018-06-20T12:47:24.481Z,337.50
2018-06-20T12:48:24.496Z,337.50
2018-06-20T12:49:24.516Z,337.50
2018-06-20T12:50:24.515Z,337.50
2018-06-20T12:51:24.525Z,343.13
2018-06-20T12:52:24.547Z,343.13
2018-06-20T12:53:24.549Z,348.75
2018-06-20T12:54:24.552Z,348.75
2018-06-20T12:55:24.570Z,354.38
2018-06-20T12:56:24.568Z,354.38
2018-06-20T12:57:24.587Z,354.38
2018-06-20T12:58:24.614Z,354.38
2018-06-20T12:59:24.589Z,354.38
2018-06-20T13:00:24.600Z,354.38
2018-06-20T13:01:24.610Z,354.38
2018-06-20T13:02:24.619Z,354.38
2018-06-20T13:03:24.625Z,354.38